Time;durP1;ratioP1;P1;durP2;ratioP2;P2;SDS_P1;SDS_P2;PMS_P1;PMS_P2;Temp;Humidity;BMP_temperature;BMP_pressure;BME280_temperature;BME280_humidity;BME280_pressure;Samples;Min_cycle;Max_cycle;Signal;HPM_P1;HPM_P2
2022/04/26 03:38:08;;;;;;;12.73;8.15;;;;;;;7.90;100.00;92198.16;4822855;29;20710;-93
2022/04/26 03:40:33;;;;;;;12.57;7.18;;;;;;;7.79;100.00;92196.72;4788331;29;20042;-93
2022/04/26 03:43:02;;;;;;;13.00;8.15;;;;;;;7.74;100.00;92194.94;4820015;29;20059;-93
2022/04/26 03:45:53;;;;;;;12.93;8.45;;;;;;;7.73;100.00;92198.59;4825371;29;20098;-95
2022/04/26 03:49:19;;;;;;;11.73;8.18;;;;;;;7.78;100.00;92200.38;4823079;29;20080;-94
2022/04/26 03:55:06;;;;;;;17.02;8.32;;;;;;;7.77;100.00;92204.03;4811695;29;20066;-93
2022/04/26 03:57:57;;;;;;;12.10;8.30;;;;;;;7.41;100.00;92139.25;4792631;29;20031;-91
2022/04/26 04:00:43;;;;;;;13.75;7.57;;;;;;;7.83;100.00;92197.72;4812020;24;20145;-76
2022/04/26 04:03:09;;;;;;;12.80;8.02;;;;;;;7.75;100.00;92201.72;4816771;29;20077;-76
2022/04/26 04:05:35;;;;;;;15.23;8.60;;;;;;;7.67;100.00;92197.88;4824921;29;20053;-77
2022/04/26 04:08:01;;;;;;;436.90;17.52;;;;;;;7.65;100.00;92196.59;4824298;29;20042;-76
2022/04/26 04:10:27;;;;;;;438.10;17.55;;;;;;;7.63;100.00;92202.09;4822741;29;20046;-76
2022/04/26 04:12:52;;;;;;;373.85;16.00;;;;;;;7.63;100.00;92207.31;4793146;29;20042;-77
2022/04/26 04:15:20;;;;;;;110.70;12.15;;;;;;;7.75;100.00;92213.97;4824318;29;20523;-78
2022/04/26 04:17:46;;;;;;;841.53;26.67;;;;;;;7.74;100.00;92209.81;4810862;29;20046;-78
2022/04/26 04:20:14;;;;;;;57.05;10.27;;;;;;;7.68;100.00;92212.47;4791277;29;20393;-79
2022/04/26 04:22:41;;;;;;;98.70;13.02;;;;;;;7.68;100.00;92217.66;4804866;29;20050;-79
2022/04/26 04:25:07;;;;;;;440.80;17.95;;;;;;;7.74;100.00;92228.03;4812229;29;20042;-80
2022/04/26 04:27:33;;;;;;;931.83;27.40;;;;;;;7.70;100.00;92231.22;4829455;29;20565;-79
2022/04/26 04:30:02;;;;;;;242.20;15.18;;;;;;;7.69;100.00;92224.44;4829864;29;20054;-78
2022/04/26 04:32:29;;;;;;;57.50;11.68;;;;;;;7.69;100.00;92218.44;4810328;29;20061;-76
2022/04/26 04:34:55;;;;;;;591.13;21.23;;;;;;;7.74;100.00;92225.44;4802327;29;20042;-80
2022/04/26 04:37:22;;;;;;;47.90;11.02;;;;;;;7.71;100.00;92226.75;4811793;29;20080;-76
2022/04/26 04:39:49;;;;;;;167.93;13.50;;;;;;;7.73;100.00;92224.66;4824682;29;20536;-77
2022/04/26 04:42:15;;;;;;;366.58;16.30;;;;;;;7.90;100.00;92229.44;4804070;29;20050;-79
2022/04/26 04:44:40;;;;;;;460.25;17.25;;;;;;;7.85;100.00;92234.72;4825142;29;20417;-78
2022/04/26 04:47:07;;;;;;;492.63;18.33;;;;;;;7.78;100.00;92236.88;4808429;29;20066;-78
2022/04/26 04:49:32;;;;;;;792.22;25.88;;;;;;;7.79;100.00;92244.41;4827204;29;20050;-78
2022/04/26 04:51:58;;;;;;;713.80;21.92;;;;;;;7.79;100.00;92243.63;4811588;29;20042;-79
2022/04/26 04:54:24;;;;;;;508.08;19.20;;;;;;;7.83;100.00;92244.63;4829042;29;20405;-83
2022/04/26 04:56:52;;;;;;;68.57;11.77;;;;;;;7.85;100.00;92243.31;4797680;29;20525;-80
2022/04/26 04:59:17;;;;;;;924.10;26.95;;;;;;;7.82;100.00;92251.69;4811935;29;20053;-77
2022/04/26 05:01:43;;;;;;;835.20;24.58;;;;;;;7.81;100.00;92252.72;4809608;29;20115;-80
2022/04/26 05:04:09;;;;;;;711.63;23.60;;;;;;;7.80;100.00;92245.19;4806154;29;20042;-79
2022/04/26 05:06:34;;;;;;;1118.40;32.42;;;;;;;7.80;100.00;92242.59;4825240;29;20443;-82
2022/04/26 05:09:00;;;;;;;515.20;16.75;;;;;;;7.78;100.00;92248.06;4796823;29;20049;-81
2022/04/26 05:11:26;;;;;;;1124.05;31.63;;;;;;;7.85;100.00;92251.13;4810263;29;20385;-80
2022/04/26 05:13:52;;;;;;;748.60;21.42;;;;;;;7.90;100.00;92245.09;4809567;29;20045;-81
2022/04/26 05:16:17;;;;;;;547.30;18.17;;;;;;;7.93;100.00;92249.75;4805188;29;20038;-82
2022/04/26 05:18:44;;;;;;;715.28;21.67;;;;;;;7.91;100.00;92257.09;4809796;29;20468;-81
2022/04/26 05:21:10;;;;;;;396.95;14.50;;;;;;;7.84;100.00;92257.41;4823688;29;20106;-78
2022/04/26 05:26:21;;;;;;;625.17;19.55;;;;;;;7.75;100.00;92256.44;4823717;29;20086;-79
2022/04/26 05:28:47;;;;;;;575.13;17.85;;;;;;;7.76;100.00;92246.78;4806131;29;20101;-82
2022/04/26 05:31:13;;;;;;;81.75;7.88;;;;;;;7.63;100.00;92251.59;4795989;29;20034;-78
2022/04/26 05:33:38;;;;;;;92.95;6.70;;;;;;;7.76;100.00;92262.41;4819200;29;20421;-77
2022/04/26 05:36:04;;;;;;;339.10;14.85;;;;;;;7.72;100.00;92260.38;4821621;29;20057;-78
2022/04/26 05:38:30;;;;;;;765.30;26.63;;;;;;;7.57;100.00;92257.13;4825121;29;20106;-78
2022/04/26 05:40:56;;;;;;;671.92;23.60;;;;;;;7.36;100.00;92259.06;4810980;29;20110;-78
2022/04/26 05:43:21;;;;;;;715.35;23.77;;;;;;;7.37;100.00;92258.03;4827977;29;20095;-78
2022/04/26 05:45:47;;;;;;;1555.35;44.08;;;;;;;7.42;100.00;92263.97;4809947;29;20050;-80
2022/04/26 05:48:13;;;;;;;726.75;23.83;;;;;;;7.23;100.00;92250.06;4813759;29;20046;-78
2022/04/26 05:50:40;;;;;;;706.28;21.13;;;;;;;7.36;100.00;92261.69;4822055;29;20114;-78
2022/04/26 05:53:07;;;;;;;740.33;22.17;;;;;;;7.30;100.00;92263.56;4823571;29;20042;-77
2022/04/26 05:55:32;;;;;;;791.63;24.52;;;;;;;7.28;100.00;92263.81;4797637;29;20054;-77
2022/04/26 05:57:58;;;;;;;1413.13;37.63;;;;;;;7.32;100.00;92276.28;4828811;29;20038;-80
2022/04/26 06:00:24;;;;;;;551.42;17.85;;;;;;;7.35;100.00;92278.34;4808798;29;20050;-80
2022/04/26 06:02:50;;;;;;;12.10;6.97;;;;;;;7.38;100.00;92281.19;4834487;29;20042;-79
2022/04/26 06:05:16;;;;;;;8.43;2.92;;;;;;;7.19;100.00;92269.88;4829207;29;20050;-79
2022/04/26 06:07:41;;;;;;;6.07;2.30;;;;;;;7.03;100.00;92253.56;4826784;29;20042;-80
2022/04/26 06:10:07;;;;;;;3.30;2.10;;;;;;;7.01;100.00;92260.88;4819871;29;20050;-79
2022/04/26 06:12:34;;;;;;;4.53;2.00;;;;;;;6.97;100.00;92259.84;4829145;29;20041;-79
2022/04/26 06:15:00;;;;;;;3.70;1.90;;;;;;;6.96;100.00;92253.06;4825886;29;20049;-78
2022/04/26 06:17:28;;;;;;;3.42;2.20;;;;;;;6.99;100.00;92262.94;4826382;29;20034;-79
2022/04/26 06:19:54;;;;;;;4.18;1.80;;;;;;;7.04;100.00;92260.31;4827363;29;20504;-79
2022/04/26 06:22:20;;;;;;;2.83;1.63;;;;;;;7.08;100.00;92272.53;4833977;29;20067;-78
2022/04/26 06:24:46;;;;;;;3.42;1.70;;;;;;;7.14;100.00;92270.69;4814269;29;20533;-79
2022/04/26 06:27:11;;;;;;;4.15;1.92;;;;;;;7.23;100.00;92274.25;4831752;29;20102;-79
2022/04/26 06:29:37;;;;;;;5.05;2.00;;;;;;;7.39;100.00;92276.78;4830099;29;20042;-79
2022/04/26 06:32:03;;;;;;;31.92;3.45;;;;;;;7.56;100.00;92276.38;4832741;29;20098;-79
2022/04/26 06:34:29;;;;;;;358.55;8.80;;;;;;;7.47;100.00;92278.78;4829482;29;20042;-78
2022/04/26 06:36:55;;;;;;;13.75;4.32;;;;;;;7.46;100.00;92277.25;4831347;29;20035;-79
2022/04/26 06:39:20;;;;;;;39.08;4.63;;;;;;;7.51;100.00;92274.59;4830420;29;20138;-79
2022/04/26 06:41:47;;;;;;;119.28;6.85;;;;;;;7.56;100.00;92266.72;4817553;29;20042;-79
2022/04/26 06:44:14;;;;;;;7.97;4.35;;;;;;;7.67;100.00;92273.41;4830738;29;20092;-78
2022/04/26 06:46:40;;;;;;;6.72;3.78;;;;;;;7.84;100.00;92277.47;4815930;29;20041;-80
2022/04/26 06:49:06;;;;;;;5.03;3.35;;;;;;;7.97;100.00;92276.84;4831615;29;20102;-80
2022/04/26 06:51:40;;;;;;;4.75;2.90;;;;;;;8.02;100.00;92279.41;4831731;29;20119;-80
2022/04/26 06:54:10;;;;;;;6.63;3.25;;;;;;;7.89;100.00;92280.03;4830991;29;20055;-79
2022/04/26 06:56:35;;;;;;;9.05;4.13;;;;;;;7.90;100.00;92279.75;4830433;29;20054;-79
2022/04/26 06:59:01;;;;;;;5.22;3.05;;;;;;;7.83;100.00;92287.09;4832510;29;20358;-80
2022/04/26 07:01:27;;;;;;;4.88;3.17;;;;;;;7.83;100.00;92283.72;4821373;29;20059;-79
2022/04/26 07:03:53;;;;;;;7.82;3.35;;;;;;;7.85;100.00;92286.84;4813509;29;20049;-79
2022/04/26 07:06:18;;;;;;;7.28;3.00;;;;;;;7.92;100.00;92279.47;4830413;29;20043;-79
2022/04/26 07:08:44;;;;;;;5.22;3.17;;;;;;;8.01;100.00;92279.66;4830912;29;20050;-79
2022/04/26 07:11:10;;;;;;;5.93;3.20;;;;;;;8.07;100.00;92281.94;4828650;29;20061;-78
2022/04/26 07:13:36;;;;;;;5.28;2.60;;;;;;;8.10;100.00;92286.59;4831020;29;20049;-79
2022/04/26 07:16:01;;;;;;;3.92;2.72;;;;;;;8.11;100.00;92275.13;4831237;29;20042;-79
2022/04/26 07:18:27;;;;;;;4.88;3.30;;;;;;;8.21;100.00;92281.31;4830407;29;20047;-78
2022/04/26 07:20:52;;;;;;;5.03;2.10;;;;;;;8.23;100.00;92284.41;4829719;29;20037;-78
2022/04/26 07:23:18;;;;;;;3.20;1.90;;;;;;;8.24;100.00;92276.31;4827362;29;20052;-78
2022/04/26 07:25:44;;;;;;;3.35;1.90;;;;;;;8.32;100.00;92283.53;4822469;29;20034;-78
2022/04/26 07:28:10;;;;;;;223.10;7.70;;;;;;;8.43;100.00;92288.69;4830208;29;20042;-78
2022/04/26 07:30:36;;;;;;;7.82;3.40;;;;;;;8.10;100.00;92286.59;4829714;29;20099;-78
2022/04/26 07:35:52;;;;;;;415.05;11.88;;;;;;;8.06;100.00;92285.63;4847803;29;20091;-79
2022/04/26 07:38:18;;;;;;;5.43;3.55;;;;;;;7.97;100.00;92287.28;4832565;29;20046;-78
2022/04/26 07:40:43;;;;;;;130.02;6.38;;;;;;;8.01;100.00;92282.25;4828398;29;20505;-78
2022/04/26 07:43:09;;;;;;;5.72;3.75;;;;;;;8.00;100.00;92297.13;4827063;29;20046;-78
2022/04/26 07:45:39;;;;;;;7.60;4.35;;;;;;;7.97;100.00;92297.69;4819036;29;20050;-79
2022/04/26 07:48:06;;;;;;;5.65;3.97;;;;;;;7.85;100.00;92297.25;4815012;29;20061;-79
2022/04/26 07:50:33;;;;;;;450.38;12.25;;;;;;;7.92;100.00;92300.31;4829887;29;20054;-78
2022/04/26 07:53:00;;;;;;;700.30;19.95;;;;;;;7.90;100.00;92302.44;4827719;29;20429;-78
2022/04/26 07:55:26;;;;;;;335.05;9.50;;;;;;;7.86;100.00;92297.00;4812693;29;20035;-77
2022/04/26 07:57:52;;;;;;;317.40;10.43;;;;;;;7.72;100.00;92302.06;4824784;29;20448;-77
2022/04/26 08:00:18;;;;;;;68.72;4.90;;;;;;;7.59;100.00;92297.47;4827759;29;20041;-78
2022/04/26 08:02:44;;;;;;;54.17;5.60;;;;;;;7.81;100.00;92304.84;4812048;29;20507;-79
2022/04/26 08:05:09;;;;;;;6.43;3.47;;;;;;;8.13;100.00;92296.50;4829015;29;20413;-79
2022/04/26 08:07:39;;;;;;;6.07;3.47;;;;;;;8.37;100.00;92300.94;4827233;29;20046;-79
2022/04/26 08:10:09;;;;;;;8.07;3.88;;;;;;;7.98;100.00;92307.06;4827011;29;20046;-78
2022/04/26 08:12:37;;;;;;;24.70;5.65;;;;;;;8.00;100.00;92312.78;4812281;29;20043;-78
2022/04/26 08:15:03;;;;;;;12.90;4.53;;;;;;;8.12;100.00;92307.97;4820060;29;20038;-78
2022/04/26 08:17:28;;;;;;;5.10;3.70;;;;;;;8.88;100.00;92299.66;4829020;29;20114;-78
2022/04/26 08:19:54;;;;;;;5.68;3.30;;;;;;;9.22;96.38;92296.09;4813986;29;20045;-77
2022/04/26 08:22:19;;;;;;;5.68;3.88;;;;;;;9.36;97.49;92295.09;4828404;29;20481;-79
2022/04/26 08:27:30;;;;;;;6.75;3.60;;;;;;;9.84;97.32;92306.44;4828339;29;20062;-78
2022/04/26 08:30:00;;;;;;;11.43;4.00;;;;;;;9.54;99.22;92311.06;4828456;29;20050;-79
2022/04/26 08:32:26;;;;;;;6.30;4.32;;;;;;;9.13;100.00;92311.63;4826338;29;20523;-77
2022/04/26 08:34:58;;;;;;;6.97;3.92;;;;;;;9.11;100.00;92313.72;4828483;29;20034;-78
2022/04/26 08:37:24;;;;;;;5.75;3.72;;;;;;;9.02;100.00;92318.03;4830024;29;20419;-78
2022/04/26 08:39:52;;;;;;;4.70;2.70;;;;;;;9.00;100.00;92320.13;4826154;29;20034;-78
2022/04/26 08:42:36;;;;;;;5.22;2.50;;;;;;;9.07;99.49;92315.34;4827314;29;20046;-79
2022/04/26 08:45:04;;;;;;;5.07;2.58;;;;;;;9.04;95.95;92321.13;4828531;29;20043;-78
2022/04/26 08:52:58;;;;;;;8.75;3.20;;;;;;;8.85;100.00;92327.09;4819064;29;20050;-78
2022/04/26 08:55:24;;;;;;;4.28;2.30;;;;;;;8.48;100.00;92328.53;4829524;29;20034;-78
2022/04/26 08:57:51;;;;;;;3.80;1.83;;;;;;;8.60;96.91;92332.56;4828135;29;20045;-79
2022/04/26 09:00:17;;;;;;;5.35;1.95;;;;;;;8.66;95.10;92332.25;4827456;29;20050;-78
2022/04/26 09:02:43;;;;;;;3.92;1.90;;;;;;;8.64;95.62;92336.19;4827928;29;20046;-79
2022/04/26 09:05:12;;;;;;;7.43;2.65;;;;;;;8.75;98.55;92327.19;4813625;29;20214;-79
2022/04/26 09:07:39;;;;;;;8.45;2.72;;;;;;;8.58;100.00;92337.28;4829054;29;20031;-79
2022/04/26 09:10:13;;;;;;;6.07;2.90;;;;;;;8.41;100.00;92337.75;4809776;29;20043;-79
2022/04/26 09:13:07;;;;;;;4.43;2.55;;;;;;;8.35;100.00;92344.78;4827297;29;20047;-79
2022/04/26 09:15:54;;;;;;;5.55;2.67;;;;;;;8.38;96.66;92339.03;4827716;29;20393;-79
2022/04/26 09:18:27;;;;;;;3.90;2.00;;;;;;;8.58;96.71;92332.06;4827978;29;20046;-78
2022/04/26 09:20:58;;;;;;;3.95;1.90;;;;;;;8.86;95.82;92344.31;4823406;29;20140;-78
2022/04/26 09:23:27;;;;;;;4.82;2.50;;;;;;;8.98;94.59;92340.53;4817482;29;20035;-78
2022/04/26 09:25:58;;;;;;;6.07;1.98;;;;;;;9.03;95.41;92345.69;4827077;29;20046;-80
2022/04/26 09:28:29;;;;;;;3.05;1.80;;;;;;;8.99;94.37;92342.09;4829360;29;20062;-79
2022/04/26 09:30:56;;;;;;;6.18;2.70;;;;;;;8.82;96.38;92348.53;4827825;29;20042;-80
2022/04/26 09:33:43;;;;;;;3.88;2.45;;;;;;;8.89;98.04;92351.59;4828547;29;20038;-79
2022/04/26 09:36:10;;;;;;;4.30;2.40;;;;;;;8.85;96.43;92347.97;4826475;29;20039;-78
2022/04/26 09:38:41;;;;;;;3.85;2.60;;;;;;;8.89;96.78;92354.22;4827990;29;20045;-79
2022/04/26 09:41:09;;;;;;;168.20;7.03;;;;;;;8.82;100.00;92351.13;4828745;29;20511;-79
2022/04/26 09:43:37;;;;;;;444.08;11.85;;;;;;;8.76;100.00;92360.09;4827054;29;20047;-80
2022/04/26 09:46:04;;;;;;;5.05;3.10;;;;;;;8.44;100.00;92358.81;4811095;29;20051;-79
2022/04/26 09:48:36;;;;;;;83.20;4.85;;;;;;;8.55;100.00;92354.28;4829302;29;20038;-79
2022/04/26 09:51:03;;;;;;;8.70;3.00;;;;;;;8.66;100.00;92354.97;4827477;29;20053;-78
2022/04/26 09:53:32;;;;;;;5.20;3.38;;;;;;;8.76;100.00;92360.09;4829509;29;20266;-79
2022/04/26 09:56:03;;;;;;;6.00;3.55;;;;;;;9.13;100.00;92361.22;4826619;29;20074;-78
2022/04/26 09:58:30;;;;;;;5.32;3.63;;;;;;;9.67;99.34;92354.00;4827441;29;20078;-79
2022/04/26 10:00:59;;;;;;;7.30;4.20;;;;;;;10.67;96.84;92345.91;4827195;29;20118;-79
2022/04/26 10:03:30;;;;;;;7.63;3.85;;;;;;;11.63;91.52;92339.81;4822713;29;20043;-79
2022/04/26 10:06:07;;;;;;;10.43;5.05;;;;;;;11.65;87.79;92337.69;4828649;29;20045;-78
2022/04/26 10:08:36;;;;;;;4.63;2.92;;;;;;;10.74;89.72;92341.06;4826139;29;20126;-78
2022/04/26 10:11:03;;;;;;;315.45;9.48;;;;;;;10.32;94.25;92356.72;4829163;29;20508;-78
2022/04/26 10:13:32;;;;;;;63.33;5.10;;;;;;;9.80;97.26;92354.06;4828605;29;20038;-78
2022/04/26 10:16:04;;;;;;;155.55;7.88;;;;;;;9.57;100.00;92362.78;4828226;29;20043;-78
2022/04/26 10:18:32;;;;;;;157.30;6.97;;;;;;;9.01;100.00;92366.09;4828296;29;20102;-78
2022/04/26 10:20:58;;;;;;;313.52;13.07;;;;;;;8.46;100.00;92356.72;4812293;29;20035;-78
2022/04/26 10:23:24;;;;;;;71.00;5.35;;;;;;;8.39;100.00;92358.84;4829187;29;20038;-79
2022/04/26 10:26:11;;;;;;;5.78;3.00;;;;;;;8.41;100.00;92364.59;4827621;29;20487;-78
2022/04/26 10:28:53;;;;;;;3.75;2.20;;;;;;;8.21;100.00;92362.13;4828556;29;20145;-79
2022/04/26 10:31:39;;;;;;;4.13;2.78;;;;;;;8.23;100.00;92357.44;4827382;29;20042;-79
2022/04/26 10:34:17;;;;;;;8.45;4.57;;;;;;;8.71;100.00;92353.09;4827739;29;20050;-78
2022/04/26 10:36:45;;;;;;;5.68;4.05;;;;;;;9.02;100.00;92346.75;4818718;29;20038;-79
2022/04/26 10:39:13;;;;;;;7.88;4.47;;;;;;;9.75;98.40;92345.53;4820495;29;20034;-78
2022/04/26 10:41:40;;;;;;;6.35;3.83;;;;;;;10.39;97.94;92351.09;4825183;29;20038;-78
2022/04/26 10:44:33;;;;;;;7.38;3.60;;;;;;;10.84;93.84;92351.34;4822894;29;20125;-79
2022/04/26 10:47:02;;;;;;;4.57;3.13;;;;;;;11.40;86.49;92347.63;4828543;29;20168;-78
2022/04/26 10:49:38;;;;;;;4.47;2.80;;;;;;;11.45;84.61;92349.38;4829113;29;20035;-78
2022/04/26 10:52:19;;;;;;;5.82;3.20;;;;;;;10.94;87.67;92353.00;4828736;29;20058;-79
2022/04/26 10:54:58;;;;;;;6.53;3.15;;;;;;;11.16;89.11;92358.34;4828464;29;20092;-79
2022/04/26 10:57:28;;;;;;;8.40;3.60;;;;;;;11.44;87.46;92340.75;4827191;29;20133;-78
2022/04/26 11:00:11;;;;;;;6.10;3.55;;;;;;;10.98;88.86;92349.50;4828258;29;20641;-78
2022/04/26 11:02:42;;;;;;;8.65;4.60;;;;;;;10.98;88.95;92346.88;4827098;29;20088;-78
2022/04/26 11:05:16;;;;;;;7.88;3.67;;;;;;;11.41;83.58;92353.66;4811806;29;20038;-78
2022/04/26 11:07:47;;;;;;;10.85;4.20;;;;;;;11.55;87.55;92356.25;4813065;29;20397;-78
2022/04/26 11:10:15;;;;;;;7.25;4.35;;;;;;;10.74;93.11;92352.31;4828907;29;20102;-78
2022/04/26 11:12:41;;;;;;;8.82;4.03;;;;;;;10.47;95.64;92358.31;4828075;29;20027;-79
2022/04/26 11:15:12;;;;;;;7.78;3.70;;;;;;;10.30;89.90;92358.06;4830466;29;20508;-78
2022/04/26 11:17:39;;;;;;;7.43;3.83;;;;;;;10.59;86.78;92355.22;4830254;29;20034;-77
2022/04/26 11:20:12;;;;;;;6.40;3.50;;;;;;;10.96;83.32;92358.72;4831064;29;20470;-79
2022/04/26 11:22:49;;;;;;;5.78;3.70;;;;;;;12.05;81.63;92351.00;4832671;29;20038;-79
2022/04/26 11:28:12;;;;;;;7.75;3.92;;;;;;;11.39;84.29;92356.59;4825585;29;20054;-78
2022/04/26 11:30:48;;;;;;;7.68;4.25;;;;;;;11.19;83.55;92346.47;4830167;29;20046;-79
2022/04/26 11:33:15;;;;;;;8.30;3.78;;;;;;;11.07;86.58;92340.97;4830888;29;20530;-79
2022/04/26 11:35:42;;;;;;;6.20;4.13;;;;;;;10.95;85.64;92349.31;4828602;29;20042;-79
2022/04/26 11:38:14;;;;;;;7.15;4.45;;;;;;;10.83;88.19;92344.59;4827919;29;20121;-79
2022/04/26 11:40:51;;;;;;;7.05;4.20;;;;;;;10.91;86.55;92346.50;4832430;29;20038;-78
2022/04/26 11:43:19;;;;;;;8.15;4.07;;;;;;;10.89;86.98;92332.16;4829626;29;20101;-79
2022/04/26 11:45:47;;;;;;;7.75;4.60;;;;;;;11.10;85.36;92332.53;4831790;29;20475;-79
2022/04/26 11:48:25;;;;;;;6.47;4.18;;;;;;;10.66;85.91;92342.50;4829928;29;20519;-78
2022/04/26 11:50:56;;;;;;;6.80;4.38;;;;;;;11.07;87.61;92338.34;4829608;29;20034;-78
2022/04/26 11:53:24;;;;;;;8.70;5.10;;;;;;;10.86;87.96;92346.59;4824831;29;20042;-79
2022/04/26 11:55:55;;;;;;;7.65;4.95;;;;;;;10.98;89.71;92331.16;4818986;29;20716;-78
2022/04/26 11:58:38;;;;;;;9.25;5.38;;;;;;;10.87;92.13;92329.81;4818169;29;20034;-78
2022/04/26 12:01:15;;;;;;;9.95;5.50;;;;;;;10.94;89.21;92338.09;4828543;29;20079;-79
2022/04/26 12:03:48;;;;;;;7.90;4.82;;;;;;;10.69;93.15;92331.44;4829803;29;20095;-79
2022/04/26 12:06:16;;;;;;;8.23;4.80;;;;;;;10.51;92.09;92342.78;4815237;29;20042;-79
2022/04/26 12:09:03;;;;;;;7.15;4.82;;;;;;;10.91;89.81;92341.25;4799463;29;20413;-79
2022/04/26 12:11:32;;;;;;;7.53;5.15;;;;;;;11.06;87.67;92336.81;4830899;29;20094;-78
2022/04/26 12:14:05;;;;;;;8.25;4.90;;;;;;;10.95;89.73;92331.75;4829223;29;20027;-79
2022/04/26 12:16:47;;;;;;;8.88;5.05;;;;;;;10.97;89.07;92345.34;4831124;29;20045;-79
2022/04/26 12:19:14;;;;;;;10.13;5.63;;;;;;;10.80;89.12;92339.91;4827711;29;20050;-76
2022/04/26 12:21:56;;;;;;;9.77;6.13;;;;;;;10.57;91.29;92341.63;4822198;29;20050;-76
2022/04/26 12:24:28;;;;;;;9.00;5.65;;;;;;;10.49;91.35;92343.09;4819398;29;20042;-75
2022/04/26 12:26:58;;;;;;;10.65;5.97;;;;;;;10.75;91.59;92334.78;4819031;29;20046;-76
2022/04/26 12:29:29;;;;;;;9.35;5.63;;;;;;;11.04;89.86;92334.47;4823621;29;20075;-75
2022/04/26 12:31:55;;;;;;;8.90;5.55;;;;;;;10.82;91.63;92333.31;4821249;29;20050;-75
2022/04/26 12:34:29;;;;;;;10.18;6.18;;;;;;;11.12;91.16;92336.41;4795423;29;20494;-75
2022/04/26 12:37:06;;;;;;;11.27;5.47;;;;;;;11.37;90.09;92329.88;4822015;29;20096;-75
2022/04/26 12:39:38;;;;;;;7.70;5.30;;;;;;;11.64;84.91;92333.50;4821934;29;20038;-75
2022/04/26 12:42:04;;;;;;;9.13;5.50;;;;;;;11.95;85.74;92328.38;4803720;29;20095;-75
2022/04/26 12:44:30;;;;;;;9.80;6.03;;;;;;;11.45;84.67;92323.94;4822126;29;20042;-76
2022/04/26 12:52:47;;;;;;;8.68;5.82;;;;;;;11.41;87.08;92322.19;4821257;29;20038;-76
2022/04/26 12:55:23;;;;;;;11.93;5.82;;;;;;;11.45;85.26;92323.16;4821102;29;20054;-75
2022/04/26 12:57:50;;;;;;;9.75;6.70;;;;;;;11.19;86.41;92321.09;4823383;29;20035;-76
2022/04/26 13:00:18;;;;;;;10.18;6.30;;;;;;;11.20;86.55;92327.09;4820487;29;20050;-75
2022/04/26 13:02:45;;;;;;;9.50;6.07;;;;;;;10.88;88.05;92326.16;4821849;29;20051;-76
2022/04/26 13:05:11;;;;;;;11.82;7.07;;;;;;;11.04;87.28;92322.16;4791286;29;20053;-76
2022/04/26 13:07:37;;;;;;;12.45;6.93;;;;;;;11.19;85.49;92315.03;4821842;29;20034;-76
2022/04/26 13:10:03;;;;;;;11.10;7.00;;;;;;;10.85;82.88;92321.47;4805920;29;20050;-76
2022/04/26 13:12:29;;;;;;;8.98;6.53;;;;;;;11.08;86.13;92321.56;4821490;29;20030;-76
2022/04/26 13:14:55;;;;;;;12.15;7.00;;;;;;;10.95;85.77;92315.28;4806576;29;20038;-76
2022/04/26 13:17:21;;;;;;;13.85;7.70;;;;;;;11.27;83.31;92309.13;4822748;29;20097;-75
2022/04/26 13:19:49;;;;;;;10.95;6.90;;;;;;;11.57;84.30;92315.56;4823843;29;20038;-76
2022/04/26 13:22:16;;;;;;;9.85;7.15;;;;;;;11.74;82.22;92307.06;4806085;29;20046;-76
2022/04/26 13:24:42;;;;;;;12.40;6.90;;;;;;;11.92;81.84;92315.09;4805275;29;20034;-77
2022/04/26 13:27:08;;;;;;;13.18;7.13;;;;;;;12.12;78.92;92309.38;4805278;29;20050;-77
2022/04/26 13:29:34;;;;;;;13.18;7.53;;;;;;;12.20;79.59;92300.75;4821594;29;20138;-77
2022/04/26 13:32:02;;;;;;;12.18;8.30;;;;;;;12.66;79.10;92307.47;4816036;29;20046;-76
2022/04/26 13:34:27;;;;;;;11.25;7.93;;;;;;;12.66;79.93;92294.34;4821708;29;20443;-76
2022/04/26 13:36:54;;;;;;;10.73;7.28;;;;;;;12.62;77.64;92303.91;4819371;29;20030;-76
2022/04/26 13:39:21;;;;;;;10.95;7.75;;;;;;;12.82;79.43;92293.94;4819226;29;20049;-76
2022/04/26 13:41:52;;;;;;;11.40;6.15;;;;;;;12.60;79.67;92303.44;4792049;29;20049;-76
2022/04/26 13:44:21;;;;;;;12.83;8.20;;;;;;;12.81;79.33;92300.28;4798796;29;20049;-76
2022/04/26 13:46:47;;;;;;;10.95;7.20;;;;;;;13.27;80.21;92293.75;4822088;29;20383;-76
2022/04/26 13:49:13;;;;;;;11.10;6.90;;;;;;;12.17;81.58;92290.09;4822366;29;20106;-75
2022/04/26 13:51:38;;;;;;;13.30;7.68;;;;;;;12.03;81.76;92300.66;4790356;29;20038;-76
2022/04/26 13:54:04;;;;;;;14.38;9.10;;;;;;;12.05;80.69;92293.28;4803682;29;20042;-77
2022/04/26 13:56:30;;;;;;;13.68;8.25;;;;;;;12.57;79.28;92288.28;4832393;29;20088;-76
2022/04/26 13:58:55;;;;;;;10.23;7.10;;;;;;;12.53;78.82;92297.06;4840892;29;20481;-76
2022/04/26 14:01:23;;;;;;;12.43;7.00;;;;;;;11.77;80.28;92293.34;4809617;29;20581;-76
2022/04/26 14:03:49;;;;;;;13.65;7.55;;;;;;;11.58;82.83;92285.66;4821967;29;20050;-76
2022/04/26 14:06:24;;;;;;;15.48;8.55;;;;;;;11.78;81.12;92299.38;4818907;29;20069;-74
2022/04/26 14:08:50;;;;;;;12.35;8.18;;;;;;;11.57;81.11;92291.19;4821919;29;20039;-76
2022/04/26 14:11:17;;;;;;;14.95;8.48;;;;;;;11.71;81.29;92289.31;4806775;29;20050;-77
2022/04/26 14:21:57;;;;;;;14.57;9.57;;;;;;;11.71;82.75;92286.69;4821405;29;20159;-77
2022/04/26 14:24:22;;;;;;;15.00;9.70;;;;;;;11.93;81.31;92293.78;4824338;29;20049;-76
2022/04/26 14:26:49;;;;;;;14.07;8.70;;;;;;;12.09;80.64;92288.94;4819163;29;20038;-77
2022/04/26 14:29:16;;;;;;;15.80;9.43;;;;;;;11.97;81.33;92281.63;4820282;29;20516;-77
2022/04/26 14:31:42;;;;;;;13.75;9.88;;;;;;;11.92;82.42;92283.63;4821810;29;20141;-76
2022/04/26 14:34:08;;;;;;;14.57;9.15;;;;;;;11.98;82.48;92288.44;4821492;29;20046;-76
2022/04/26 14:36:34;;;;;;;19.00;10.38;;;;;;;11.63;83.58;92277.66;4821381;29;20489;-76
2022/04/26 14:39:00;;;;;;;15.77;9.82;;;;;;;11.87;81.89;92285.28;4820920;29;20118;-75
2022/04/26 14:41:26;;;;;;;12.35;8.77;;;;;;;11.64;78.82;92278.44;4819474;29;20528;-76
2022/04/26 14:43:53;;;;;;;13.60;8.77;;;;;;;11.50;79.56;92288.97;4820437;29;20121;-77
2022/04/26 14:46:19;;;;;;;15.30;9.20;;;;;;;11.69;77.26;92282.81;4819189;29;20381;-75
2022/04/26 14:48:45;;;;;;;12.50;8.27;;;;;;;11.96;75.84;92287.19;4824250;29;20030;-77
2022/04/26 14:51:11;;;;;;;15.63;9.00;;;;;;;12.02;79.21;92281.53;4825320;29;20042;-76
2022/04/26 14:53:38;;;;;;;13.57;8.35;;;;;;;12.23;75.29;92286.28;4824324;29;20050;-77
2022/04/26 14:56:05;;;;;;;13.98;9.02;;;;;;;12.14;75.75;92294.09;4824622;29;20163;-76
2022/04/26 14:58:31;;;;;;;13.45;8.98;;;;;;;12.26;76.53;92294.31;4812003;29;20038;-76
2022/04/26 15:00:57;;;;;;;13.55;8.85;;;;;;;12.48;77.14;92290.88;4814894;29;20057;-76
2022/04/26 15:03:23;;;;;;;12.07;8.32;;;;;;;12.70;77.19;92287.41;4821271;29;20126;-76
2022/04/26 15:05:49;;;;;;;12.98;7.95;;;;;;;12.85;75.60;92288.84;4824311;29;20056;-76
2022/04/26 15:10:58;;;;;;;11.27;7.95;;;;;;;12.83;70.86;92287.59;4829620;29;20133;-77
2022/04/26 15:18:53;;;;;;;14.10;8.70;;;;;;;12.22;74.41;92295.97;4835027;29;20104;-76
2022/04/26 15:21:19;;;;;;;13.02;8.20;;;;;;;12.12;75.45;92290.22;4816898;29;20524;-76
2022/04/26 15:23:44;;;;;;;12.68;8.77;;;;;;;12.05;75.83;92282.78;4823827;29;20034;-75
2022/04/26 15:26:11;;;;;;;15.35;8.40;;;;;;;12.03;76.09;92280.44;4824996;29;20050;-75
2022/04/26 15:28:38;;;;;;;13.90;8.73;;;;;;;12.01;75.82;92289.69;4832175;29;20045;-76
2022/04/26 15:31:05;;;;;;;17.60;9.23;;;;;;;11.92;76.25;92288.88;4806306;29;20046;-76
2022/04/26 15:33:30;;;;;;;14.93;9.13;;;;;;;11.70;77.31;92293.00;4818221;29;20057;-75
2022/04/26 15:35:57;;;;;;;12.30;8.55;;;;;;;11.87;76.97;92287.91;4808094;29;20493;-76
2022/04/26 15:38:27;;;;;;;14.45;9.00;;;;;;;11.95;77.40;92286.41;4808394;29;20061;-75
2022/04/26 15:40:54;;;;;;;17.92;9.65;;;;;;;12.05;77.02;92283.53;4823967;29;20045;-75
2022/04/26 15:43:20;;;;;;;15.00;8.45;;;;;;;12.04;76.07;92274.13;4814074;29;20121;-76
2022/04/26 15:45:46;;;;;;;15.20;8.63;;;;;;;12.09;74.81;92283.72;4823434;29;20034;-76
2022/04/26 15:48:12;;;;;;;15.98;8.60;;;;;;;12.16;76.14;92273.59;4821731;29;20045;-76
2022/04/26 15:50:41;;;;;;;13.00;8.75;;;;;;;12.44;76.02;92273.41;4819743;29;20038;-75
2022/04/26 15:53:08;;;;;;;14.55;8.02;;;;;;;13.12;74.69;92264.19;4814576;29;20129;-75